Total volume
$2,884
Trades
417
Unique wallets
223
Liquidity
$7,733
Latest YES mid
45¢
Latest NO mid
55¢
End date
2026-05-08
First seen
2026-05-08
last 05-08 22:51
Cohort breakdown
who's buying — by wallet tier SMI: +0.1¢ (top1%: 27% YES on $542 vs crowd: 26% YES on $2.6K)
By volume tier
Tier Wallets YES buy NO buy Net bias
🐬 Dolphin 3 $122 $36 +$87
🐟 Fish 19 $198 $488 $290
🦐 Shrimp 201 $357 $1.4K $999
By P&L percentile
Tier Wallets YES buy NO buy Net bias
🎯 Top 1% 20 $144 $398 $254
🏆 Top 5% 29 $42 $319 $277
✅ Top 10% 19 $19 $205 $186
Median 57 $7 $180 $173
Below median 38 $13 $99 $86
⚠️ Bottom 10% 11 $12 $95 $83
🔻 Bottom 5% 15 $29 $330 $301
💀 Bottom 1% 7 $317 $49 +$269
unranked 27 $94 $204 $111
Wallet Side Net shares Cost basis Volume Trades Last activity
Wonderful-Vagrant 0x931f…2e44 Up +932 $181 $181 3 05-08 22:51
(anonymous) 0xe907…cff6 Up +254 $64 $64 4 05-08 22:51
Dangerous-Zoology 0x8302…f88a Up +240 $56 $56 1 05-08 22:51
Stiff-Blackberry 0x10c9…e999 Up +225 $37 $37 3 05-08 22:51
Radiant-Spy 0xe89e…0600 Down +200 $168 $168 1 05-08 22:51
Parched-Lipoprotein 0x22dd…3f95 Down +195 $165 $165 1 05-08 22:51
Vengeful-Utilization 0x652c…2af0 Down +182 $151 $151 1 05-08 22:51
Monstrous-Dew 0x5b63…11a4 Up +122 $46 $46 1 05-08 22:45
Dearest-Dialogue-Garb 0xb66d…7ec1 Down +105 $71 $71 2 05-08 22:51
Bossy-Responsibility 0xfd7b…65bd Up +95 $19 $19 17 05-08 22:51
Bossy-Responsibility 0xfd7b…65bd Down +95 $74 $74 19 05-08 22:51
Itchy-Scorn 0xb1b0…072e Up +83 $14 $14 1 05-08 22:51
Simple-Sardine 0x5606…5fea Up +76 $14 $14 1 05-08 22:51
Unfolded-Geranium 0x9203…1fa9 Up +71 $15 $15 1 05-08 22:51
Tender-Symptom-Kind 0xf0ce…bf26 Up +71 $12 $12 2 05-08 22:51
Sentimental-Differential 0x510a…d77f Down +70 $58 $58 8 05-08 22:51
Dirty-Figure 0xc4bc…963c Down +70 $56 $56 1 05-08 22:51
Hidden-Parliament 0xfd16…2c91 Down +67 $43 $43 1 05-08 22:46
Deep-Observatory 0xc131…f5d5 Up +66 $11 $11 3 05-08 22:51
Classic-Ashram 0x8ad2…c7c0 Down +64 $49 $49 1 05-08 22:51
Humble-Outcome 0x9a1d…86d6 Down +63 $49 $49 1 05-08 22:51
Spotless-Scenery 0xc23b…ecb1 Up +60 $14 $14 10 05-08 22:51
Upset-Sight 0xe022…6603 Down +60 $50 $50 3 05-08 22:51
Ambitious-Membership 0xc387…e4f4 Up +56 $12 $12 1 05-08 22:51
Popular-Insurrection 0xeebd…ba30 Up +53 $13 $13 1 05-08 22:51
Sore-Motorcycle 0x2179…213c Up +52 $12 $12 10 05-08 22:51
Colorful-Outline 0xc16b…a93d Up +50 $12 $12 11 05-08 22:51
Frivolous-Insurance 0x7758…42a9 Up +44 $8 $8 1 05-08 22:51
Paltry-Linguist 0x48e2…9ce3 Down +44 $35 $35 1 05-08 22:51
Popular-Insurrection 0xeebd…ba30 Down +44 $36 $36 1 05-08 22:51
Considerate-Ray 0x5c66…990a Up +42 $10 $10 2 05-08 22:51
Minor-Air 0x9848…b0ba Up +41 $7 $7 1 05-08 22:51
Angelic-Hospice 0xb128…5014 Up +40 $9 $9 2 05-08 22:51
(anonymous) 0x6b83…4bf1 Down +40 $34 $34 2 05-08 22:51
Meager-Mean 0x6b49…056d Down +39 $30 $30 1 05-08 22:51
Left-Fetus 0xf455…9d55 Down +38 $30 $30 6 05-08 22:51
Confused-Dead 0x05dd…305c Up +38 $6 $6 1 05-08 22:51
Icy-Pride 0x9317…5a5f Up +38 $6 $6 1 05-08 22:51
Questionable-Miter 0x7b55…8f95 Down +36 $30 $30 2 05-08 22:51
Bulky-Bracket 0xabc2…7048 Up +36 $6 $6 2 05-08 22:51
Black-Dream 0xeff1…a25c Down +30 $24 $24 1 05-08 22:51
(anonymous) 0xd406…7e60 Down +29 $24 $24 1 05-08 22:51
Villainous-Sequel 0xb972…6c79 Down +28 $22 $22 4 05-08 22:51
Ashamed-Needle 0x7038…fe98 Up +27 $4 $4 2 05-08 22:51
Productive-Squeegee 0x72cf…26c7 Down +26 $20 $20 1 05-08 22:51
Feisty-Attempt 0xc5ab…8bca Down +26 $20 $20 1 05-08 22:51
Embarrassed-Lymphocyte 0xf82a…d221 Up +25 $4 $4 1 05-08 22:51
Exotic-Evening 0x81fd…dd2b Down +25 $21 $21 1 05-08 22:51
Angry-Suede 0x8692…fbac Down +25 $20 $20 5 05-08 22:51
Fair-Passage 0x3aad…226d Down +24 $18 $18 4 05-08 22:51
Loyal-Mobster 0x8a64…d389 Up +24 $5 $5 1 05-08 22:51
Partial-Skull 0xe648…fb2e Down +24 $20 $20 1 05-08 22:51
Superficial-Advocacy 0x3a9f…ea97 Up +23 $12 $12 1 05-08 21:51
Primary-Elevator 0x07c2…34d9 Up +22 $5 $5 3 05-08 22:51
Ambitious-Exposure 0x9809…f09b Up +21 $5 $5 1 05-08 22:51
Tall-Achiever 0x9b6e…c21a Up +21 $5 $5 1 05-08 22:51
Impressive-Buck 0xbd05…0a55 Down +20 $16 $16 1 05-08 22:51
Novel-Morbid 0x4766…5a03 Down +20 $17 $17 1 05-08 22:51
Worldly-Shackle 0x941e…1fbf Down +20 $17 $17 1 05-08 22:51
Incomplete-Town 0x5158…7df4 Down +20 $16 $16 1 05-08 22:51